createdAt,value
2022-08-28T00:00:31.304Z,6.88
2022-08-28T00:02:59.899Z,6.95
2022-08-28T00:05:30.964Z,7.32
2022-08-28T00:08:00.684Z,7.15
2022-08-28T00:10:31.077Z,7.20
2022-08-28T00:12:59.985Z,7.82
2022-08-28T00:15:31.178Z,6.90
2022-08-28T00:17:59.814Z,6.97
2022-08-28T00:20:29.323Z,6.38
2022-08-28T00:22:58.248Z,5.97
2022-08-28T00:25:28.340Z,6.00
2022-08-28T00:27:59.769Z,5.05
2022-08-28T00:30:30.961Z,5.15
2022-08-28T00:33:01.238Z,5.90
2022-08-28T00:35:29.850Z,5.05
2022-08-28T00:37:58.044Z,4.40
2022-08-28T00:40:33.062Z,5.20
2022-08-28T00:43:04.746Z,4.60
2022-08-28T00:45:39.558Z,4.53
2022-08-28T00:48:08.793Z,4.68
2022-08-28T00:50:51.382Z,4.80
2022-08-28T00:53:20.850Z,4.50
2022-08-28T00:55:51.895Z,3.97
2022-08-28T00:58:21.368Z,4.53
2022-08-28T01:00:49.921Z,4.25
2022-08-28T01:03:18.080Z,4.65
2022-08-28T01:05:48.016Z,4.38
2022-08-28T01:08:16.747Z,4.40
2022-08-28T01:10:51.505Z,4.22
2022-08-28T01:13:21.444Z,4.07
2022-08-28T01:15:51.160Z,4.07
2022-08-28T01:18:21.319Z,4.85
2022-08-28T01:20:56.879Z,4.97
2022-08-28T01:23:40.743Z,4.70
2022-08-28T01:26:11.888Z,5.10
2022-08-28T01:28:40.602Z,5.70
2022-08-28T01:31:11.393Z,6.10
2022-08-28T01:33:42.571Z,6.65
2022-08-28T01:36:12.392Z,6.28
2022-08-28T01:38:43.557Z,6.95
2022-08-28T01:41:13.918Z,6.80
2022-08-28T01:43:42.843Z,7.45
2022-08-28T01:46:12.814Z,7.57
2022-08-28T01:48:43.753Z,7.72
2022-08-28T01:51:12.733Z,7.60
2022-08-28T01:53:45.198Z,7.72
2022-08-28T01:56:18.383Z,7.68
2022-08-28T01:58:48.053Z,8.93
2022-08-28T02:01:18.447Z,8.27
2022-08-28T02:03:47.041Z,8.60
2022-08-28T02:06:16.785Z,9.10
2022-08-28T02:08:47.026Z,8.65
2022-08-28T02:11:15.834Z,9.43
2022-08-28T02:13:44.401Z,9.70
2022-08-28T02:16:12.537Z,8.75
2022-08-28T02:18:41.279Z,9.18
2022-08-28T02:21:10.921Z,9.73
2022-08-28T02:23:39.924Z,10.43
2022-08-28T02:26:09.458Z,9.43
2022-08-28T02:28:37.824Z,9.90
2022-08-28T02:31:08.376Z,10.30
2022-08-28T02:33:37.612Z,9.48
2022-08-28T02:36:06.481Z,9.25
2022-08-28T02:38:34.415Z,8.88
2022-08-28T02:41:04.247Z,8.73
2022-08-28T02:43:34.060Z,8.85
2022-08-28T02:46:02.125Z,8.43
2022-08-28T02:48:31.218Z,7.45
2022-08-28T02:51:00.988Z,8.30
2022-08-28T02:53:29.183Z,7.13
2022-08-28T02:55:58.014Z,6.70
2022-08-28T02:58:26.865Z,7.50
2022-08-28T03:00:56.938Z,7.20
2022-08-28T03:03:28.171Z,5.93
2022-08-28T03:05:56.693Z,6.32
2022-08-28T03:08:27.223Z,5.85
2022-08-28T03:10:55.664Z,5.93
2022-08-28T03:13:27.019Z,5.57
2022-08-28T03:15:57.774Z,5.78
2022-08-28T03:18:26.696Z,5.63
2022-08-28T03:20:55.543Z,5.30
2022-08-28T03:23:30.202Z,5.10
2022-08-28T03:26:00.282Z,5.22
2022-08-28T03:28:30.843Z,4.97
2022-08-28T03:31:00.457Z,5.10
2022-08-28T03:33:29.288Z,5.13
2022-08-28T03:35:57.861Z,4.82
2022-08-28T03:38:25.946Z,4.90
2022-08-28T03:40:54.365Z,4.90
2022-08-28T03:43:24.755Z,4.90
2022-08-28T03:45:55.128Z,5.20
2022-08-28T03:48:24.665Z,4.35
2022-08-28T03:50:54.259Z,4.15
2022-08-28T03:53:24.513Z,4.40
2022-08-28T03:55:52.832Z,4.88
2022-08-28T03:58:21.102Z,4.25
2022-08-28T04:00:49.886Z,3.95
2022-08-28T04:03:18.413Z,3.63
2022-08-28T04:05:48.577Z,3.90
2022-08-28T04:08:18.950Z,4.40
2022-08-28T04:10:48.317Z,4.32
2022-08-28T04:13:18.321Z,4.15
2022-08-28T04:15:46.569Z,3.63
2022-08-28T04:18:14.632Z,3.85
2022-08-28T04:20:42.612Z,3.75
2022-08-28T04:23:15.932Z,3.45
2022-08-28T04:25:43.870Z,3.38
2022-08-28T04:28:14.587Z,2.95
2022-08-28T04:30:42.851Z,3.13
2022-08-28T04:33:11.383Z,3.78
2022-08-28T04:35:41.961Z,4.07
2022-08-28T04:38:09.891Z,3.45
2022-08-28T04:40:41.625Z,3.00
2022-08-28T04:43:10.026Z,2.92
2022-08-28T04:45:40.175Z,3.28
2022-08-28T04:48:13.266Z,3.30
2022-08-28T04:50:42.466Z,3.35
2022-08-28T04:53:11.329Z,3.25
2022-08-28T04:55:54.270Z,3.25
2022-08-28T04:58:24.499Z,3.20
2022-08-28T05:00:54.375Z,3.60
2022-08-28T05:03:22.789Z,3.13
2022-08-28T05:05:52.758Z,2.85
2022-08-28T05:08:26.886Z,3.30
2022-08-28T05:10:58.004Z,2.63
2022-08-28T05:13:27.260Z,3.08
2022-08-28T05:15:55.775Z,3.58
2022-08-28T05:18:25.533Z,3.65
2022-08-28T05:20:53.456Z,4.00
2022-08-28T05:23:22.032Z,3.38
2022-08-28T05:25:51.411Z,3.50
2022-08-28T05:28:20.707Z,3.05
2022-08-28T05:30:48.709Z,3.38
2022-08-28T05:33:17.641Z,3.08
2022-08-28T05:35:47.083Z,3.42
2022-08-28T05:38:17.115Z,2.50
2022-08-28T05:40:46.624Z,2.97
2022-08-28T05:43:16.153Z,2.97
2022-08-28T05:45:45.529Z,3.45
2022-08-28T05:48:13.641Z,3.95
2022-08-28T05:50:47.134Z,3.22
2022-08-28T05:53:15.522Z,3.05
2022-08-28T05:55:43.475Z,3.33
2022-08-28T05:58:26.432Z,3.20
2022-08-28T06:00:56.345Z,3.85
2022-08-28T06:03:24.780Z,3.25
2022-08-28T06:05:56.301Z,3.72
2022-08-28T06:08:24.200Z,4.15
2022-08-28T06:10:52.125Z,3.33
2022-08-28T06:13:20.042Z,3.70
2022-08-28T06:15:48.658Z,2.88
2022-08-28T06:18:18.963Z,3.13
2022-08-28T06:20:48.354Z,3.72
2022-08-28T06:23:24.238Z,4.22
2022-08-28T06:25:53.151Z,3.47
2022-08-28T06:28:23.848Z,4.22
2022-08-28T06:31:18.507Z,3.63
2022-08-28T06:33:42.542Z,3.80
2022-08-28T06:36:11.287Z,4.03
2022-08-28T06:38:39.632Z,3.53
2022-08-28T06:41:10.295Z,3.95
2022-08-28T06:43:38.563Z,3.95
2022-08-28T06:46:06.736Z,4.45
2022-08-28T06:48:34.818Z,3.47
2022-08-28T06:51:07.568Z,4.45
2022-08-28T06:53:35.627Z,5.45
2022-08-28T06:56:07.692Z,4.18
2022-08-28T06:58:37.648Z,4.05
2022-08-28T07:01:08.455Z,4.13
2022-08-28T07:03:36.455Z,4.18
2022-08-28T07:06:14.418Z,3.85
2022-08-28T07:08:44.465Z,5.25
2022-08-28T07:11:14.363Z,4.10
2022-08-28T07:13:43.077Z,4.38
2022-08-28T07:16:11.658Z,4.20
2022-08-28T07:18:40.092Z,4.32
2022-08-28T07:21:12.243Z,3.58
2022-08-28T07:23:44.074Z,4.00
2022-08-28T07:26:16.103Z,3.90
2022-08-28T07:28:45.521Z,3.15
2022-08-28T07:31:16.886Z,3.40
2022-08-28T07:33:45.372Z,4.30
2022-08-28T07:36:29.764Z,3.85
2022-08-28T07:39:00.959Z,4.38
2022-08-28T07:41:31.415Z,3.78
2022-08-28T07:44:17.991Z,4.13
2022-08-28T07:46:46.706Z,4.32
2022-08-28T07:49:17.277Z,3.55
2022-08-28T07:51:46.716Z,3.70
2022-08-28T07:54:18.058Z,3.80
2022-08-28T07:56:46.474Z,3.90
2022-08-28T07:59:16.662Z,3.92
2022-08-28T08:01:47.783Z,4.03
2022-08-28T08:04:17.247Z,3.35
2022-08-28T08:06:46.807Z,3.60
2022-08-28T08:09:19.125Z,4.43
2022-08-28T08:11:47.950Z,4.30
2022-08-28T08:14:18.028Z,5.05
2022-08-28T08:16:47.714Z,4.38
2022-08-28T08:19:16.455Z,4.20
2022-08-28T08:21:46.013Z,4.60
2022-08-28T08:24:20.821Z,4.30
2022-08-28T08:26:59.210Z,4.35
2022-08-28T08:29:29.619Z,5.03
2022-08-28T08:32:02.680Z,5.18
2022-08-28T08:34:30.667Z,4.65
2022-08-28T08:36:58.682Z,4.63
2022-08-28T08:39:26.622Z,4.07
2022-08-28T08:41:59.526Z,4.20
2022-08-28T08:44:33.678Z,4.43
2022-08-28T08:47:14.079Z,4.30
2022-08-28T08:49:48.707Z,4.68
2022-08-28T08:52:48.277Z,3.83
2022-08-28T08:55:27.103Z,4.82
2022-08-28T08:58:02.103Z,4.45
2022-08-28T09:00:33.986Z,4.53
2022-08-28T09:03:08.135Z,4.60
2022-08-28T09:05:55.142Z,4.60
2022-08-28T09:08:31.067Z,5.07
2022-08-28T09:11:08.161Z,4.10
2022-08-28T09:13:49.427Z,4.85
2022-08-28T09:16:25.158Z,4.55
2022-08-28T09:18:57.010Z,4.32
2022-08-28T09:21:29.468Z,5.50
2022-08-28T09:24:05.599Z,4.75
2022-08-28T09:26:35.755Z,4.43
2022-08-28T09:29:09.002Z,4.82
2022-08-28T09:34:28.760Z,4.57
2022-08-28T09:36:58.570Z,4.72
2022-08-28T09:39:28.882Z,3.85
2022-08-28T09:42:21.924Z,4.72
2022-08-28T09:44:58.049Z,3.97
2022-08-28T09:47:46.797Z,3.70
2022-08-28T09:50:29.707Z,4.40
2022-08-28T09:53:00.138Z,4.10
2022-08-28T09:55:38.237Z,4.40
2022-08-28T09:58:07.454Z,3.80
2022-08-28T10:00:42.424Z,3.90
2022-08-28T10:03:18.910Z,4.47
2022-08-28T10:05:58.445Z,4.15
2022-08-28T10:08:41.360Z,5.07
2022-08-28T10:11:18.424Z,4.63
2022-08-28T10:13:56.231Z,4.50
2022-08-28T10:16:36.697Z,4.25
2022-08-28T10:19:13.783Z,4.63
2022-08-28T10:21:47.361Z,4.90
2022-08-28T10:24:31.425Z,4.47
2022-08-28T10:27:10.198Z,4.97
2022-08-28T10:29:50.467Z,4.82
2022-08-28T10:32:43.842Z,5.00
2022-08-28T10:35:17.226Z,3.70
2022-08-28T10:37:58.110Z,5.38
2022-08-28T10:40:30.098Z,4.53
2022-08-28T10:43:04.718Z,4.60
2022-08-28T10:45:34.810Z,5.07
2022-08-28T10:48:10.286Z,4.53
2022-08-28T10:50:43.849Z,4.70
2022-08-28T10:53:17.609Z,4.70
2022-08-28T10:55:55.071Z,5.20
2022-08-28T10:58:26.351Z,4.68
2022-08-28T11:00:57.954Z,5.35
2022-08-28T11:03:35.908Z,5.00
2022-08-28T11:06:11.572Z,4.20
2022-08-28T11:08:40.772Z,4.72
2022-08-28T11:11:14.822Z,4.68
2022-08-28T11:13:49.786Z,5.43
2022-08-28T11:16:23.907Z,5.38
2022-08-28T11:19:23.207Z,4.80
2022-08-28T11:21:55.634Z,4.55
2022-08-28T11:24:32.840Z,5.07
2022-08-28T11:27:16.873Z,5.88
2022-08-28T11:30:29.633Z,5.70
2022-08-28T11:33:22.982Z,6.18
2022-08-28T11:35:52.833Z,5.95
2022-08-28T11:39:11.281Z,6.20
2022-08-28T11:41:40.541Z,5.80
2022-08-28T11:44:28.226Z,11.98
2022-08-28T11:47:17.123Z,9.85
2022-08-28T11:49:46.232Z,6.20
2022-08-28T11:52:37.012Z,9.00
2022-08-28T11:55:17.187Z,6.90
2022-08-28T11:57:56.876Z,5.57
2022-08-28T12:00:36.743Z,5.22
2022-08-28T12:03:14.226Z,6.60
2022-08-28T12:05:50.874Z,5.60
2022-08-28T12:08:52.197Z,6.13
2022-08-28T12:11:59.057Z,6.15
2022-08-28T12:15:03.900Z,5.90
2022-08-28T12:17:49.398Z,5.68
2022-08-28T12:20:34.808Z,6.13
2022-08-28T12:23:23.756Z,6.13
2022-08-28T12:26:01.262Z,5.53
2022-08-28T12:28:31.803Z,6.10
2022-08-28T12:31:42.659Z,5.78
2022-08-28T12:34:17.938Z,5.47
2022-08-28T12:36:50.103Z,4.78
2022-08-28T12:39:19.991Z,5.38
2022-08-28T12:41:47.997Z,5.30
2022-08-28T12:44:16.188Z,6.32
2022-08-28T12:46:45.484Z,5.47
2022-08-28T12:49:34.006Z,5.57
2022-08-28T12:52:12.136Z,5.60
2022-08-28T12:54:46.070Z,5.50
2022-08-28T12:57:16.712Z,5.10
2022-08-28T12:59:46.126Z,6.40
2022-08-28T13:02:24.116Z,4.90
2022-08-28T13:04:56.826Z,5.20
2022-08-28T13:07:29.571Z,5.88
2022-08-28T13:10:00.647Z,4.78
2022-08-28T13:12:37.853Z,4.97
2022-08-28T13:16:01.456Z,5.17
2022-08-28T13:18:51.458Z,4.43
2022-08-28T13:21:38.737Z,4.30
2022-08-28T13:24:38.419Z,4.60
2022-08-28T13:27:10.178Z,4.10
2022-08-28T13:29:39.025Z,3.72
2022-08-28T13:32:09.354Z,4.20
2022-08-28T13:34:39.090Z,3.65
2022-08-28T13:37:42.275Z,3.58
2022-08-28T13:40:24.527Z,3.63
2022-08-28T13:43:02.042Z,3.88
2022-08-28T13:45:40.109Z,2.90
2022-08-28T13:48:11.720Z,3.85
2022-08-28T13:50:41.688Z,3.30
2022-08-28T13:53:11.330Z,3.30
2022-08-28T13:55:40.604Z,3.70
2022-08-28T13:58:08.588Z,3.20
2022-08-28T14:00:42.161Z,3.53
2022-08-28T14:03:27.462Z,3.47
2022-08-28T14:05:55.417Z,3.40
2022-08-28T14:08:25.299Z,3.17
2022-08-28T14:10:53.309Z,3.17
2022-08-28T14:13:23.174Z,3.35
2022-08-28T14:15:51.089Z,3.20
2022-08-28T14:18:19.369Z,3.25
2022-08-28T14:20:48.022Z,3.60
2022-08-28T14:23:18.124Z,3.42
2022-08-28T14:25:49.085Z,3.58
2022-08-28T14:28:17.490Z,3.13
2022-08-28T14:30:46.975Z,2.92
2022-08-28T14:33:18.655Z,4.07
2022-08-28T14:35:48.767Z,3.50
2022-08-28T14:38:17.556Z,2.95
2022-08-28T14:40:49.425Z,2.85
2022-08-28T14:43:17.489Z,3.42
2022-08-28T14:45:48.160Z,2.83
2022-08-28T14:48:17.230Z,3.20
2022-08-28T14:50:47.218Z,3.00
2022-08-28T14:53:16.106Z,3.40
2022-08-28T14:55:45.985Z,2.83
2022-08-28T14:58:16.268Z,3.92
2022-08-28T15:00:46.440Z,3.08
2022-08-28T15:03:15.063Z,3.50
2022-08-28T15:05:44.136Z,3.25
2022-08-28T15:08:15.033Z,3.15
2022-08-28T15:10:44.316Z,3.22
2022-08-28T15:13:12.997Z,3.08
2022-08-28T15:15:44.678Z,3.00
2022-08-28T15:18:13.170Z,3.17
2022-08-28T15:20:43.811Z,3.05
2022-08-28T15:23:12.915Z,3.00
2022-08-28T15:25:41.488Z,3.17
2022-08-28T15:28:09.921Z,3.20
2022-08-28T15:30:39.132Z,3.00
2022-08-28T15:33:09.309Z,3.08
2022-08-28T15:35:37.277Z,3.10
2022-08-28T15:38:05.826Z,3.17
2022-08-28T15:40:51.674Z,2.70
2022-08-28T15:43:19.810Z,2.85
2022-08-28T15:45:47.911Z,2.97
2022-08-28T15:48:17.401Z,3.05
2022-08-28T15:50:45.480Z,3.42
2022-08-28T15:53:13.858Z,2.88
2022-08-28T15:55:46.069Z,2.92
2022-08-28T15:58:14.520Z,2.70
2022-08-28T16:00:43.194Z,2.90
2022-08-28T16:03:11.385Z,2.55
2022-08-28T16:05:41.148Z,4.13
2022-08-28T16:08:11.099Z,4.32
2022-08-28T16:10:40.070Z,4.43
2022-08-28T16:13:08.175Z,2.92
2022-08-28T16:15:36.489Z,3.13
2022-08-28T16:18:08.794Z,3.47
2022-08-28T16:20:37.140Z,2.55
2022-08-28T16:23:06.726Z,4.00
2022-08-28T16:25:35.118Z,2.90
2022-08-28T16:28:03.565Z,2.85
2022-08-28T16:30:31.887Z,3.20
2022-08-28T16:32:59.833Z,3.28
2022-08-28T16:35:27.809Z,3.47
2022-08-28T16:37:57.492Z,2.75
2022-08-28T16:40:26.890Z,2.97
2022-08-28T16:42:55.989Z,3.25
2022-08-28T16:45:24.221Z,3.17
2022-08-28T16:47:52.236Z,3.97
2022-08-28T16:50:20.778Z,2.80
2022-08-28T16:52:48.775Z,3.28
2022-08-28T16:55:16.908Z,3.08
2022-08-28T16:57:46.283Z,2.88
2022-08-28T17:00:14.843Z,2.42
2022-08-28T17:02:43.621Z,3.80
2022-08-28T17:05:13.179Z,2.78
2022-08-28T17:07:41.336Z,3.22
2022-08-28T17:10:12.122Z,2.55
2022-08-28T17:12:40.566Z,3.08
2022-08-28T17:15:11.450Z,2.50
2022-08-28T17:17:40.348Z,2.17
2022-08-28T17:20:30.302Z,2.17
2022-08-28T17:22:57.335Z,1.95
2022-08-28T17:25:25.894Z,2.55
2022-08-28T17:27:54.057Z,2.20
2022-08-28T17:30:23.559Z,2.65
2022-08-28T17:32:51.949Z,2.78
2022-08-28T17:35:20.082Z,2.35
2022-08-28T17:37:48.128Z,2.53
2022-08-28T17:40:18.617Z,3.30
2022-08-28T17:42:48.129Z,1.70
2022-08-28T17:45:17.499Z,2.20
2022-08-28T17:47:46.824Z,2.60
2022-08-28T17:50:14.736Z,2.28
2022-08-28T17:52:42.683Z,3.20
2022-08-28T17:55:10.668Z,2.42
2022-08-28T17:57:38.667Z,2.10
2022-08-28T18:00:09.337Z,2.10
2022-08-28T18:02:40.590Z,2.45
2022-08-28T18:05:11.828Z,2.03
2022-08-28T18:07:39.907Z,2.00
2022-08-28T18:10:09.497Z,2.28
2022-08-28T18:12:37.513Z,2.60
2022-08-28T18:15:06.863Z,2.22
2022-08-28T18:17:34.872Z,2.10
2022-08-28T18:20:03.155Z,2.17
2022-08-28T18:22:32.407Z,2.00
2022-08-28T18:25:00.315Z,2.25
2022-08-28T18:27:29.497Z,2.25
2022-08-28T18:29:57.439Z,2.33
2022-08-28T18:32:25.875Z,2.35
2022-08-28T18:34:53.793Z,2.17
2022-08-28T18:37:21.708Z,2.22
2022-08-28T18:39:51.592Z,2.45
2022-08-28T18:42:19.846Z,2.17
2022-08-28T18:44:47.825Z,2.63
2022-08-28T18:47:15.731Z,2.25
2022-08-28T18:49:43.705Z,2.30
2022-08-28T18:52:12.456Z,2.17
2022-08-28T18:54:40.551Z,3.08
2022-08-28T18:57:11.633Z,2.30
2022-08-28T18:59:40.012Z,2.17
2022-08-28T19:02:08.826Z,2.15
2022-08-28T19:04:37.004Z,2.25
2022-08-28T19:07:05.068Z,2.17
2022-08-28T19:09:34.917Z,2.38
2022-08-28T19:12:03.372Z,2.10
2022-08-28T19:14:32.799Z,2.90
2022-08-28T19:17:01.488Z,1.88
2022-08-28T19:19:29.847Z,2.08
2022-08-28T19:21:57.909Z,2.63
2022-08-28T19:24:29.656Z,1.95
2022-08-28T19:26:57.539Z,2.10
2022-08-28T19:29:25.454Z,2.13
2022-08-28T19:31:54.777Z,2.05
2022-08-28T19:34:22.855Z,2.10
2022-08-28T19:36:50.803Z,1.80
2022-08-28T19:39:18.775Z,1.90
2022-08-28T19:41:46.744Z,2.50
2022-08-28T19:44:14.950Z,2.45
2022-08-28T19:46:42.951Z,2.10
2022-08-28T19:49:12.362Z,2.00
2022-08-28T19:51:41.176Z,2.10
2022-08-28T19:54:11.096Z,2.22
2022-08-28T19:56:39.922Z,2.22
2022-08-28T19:59:08.851Z,2.05
2022-08-28T20:01:41.103Z,2.05
2022-08-28T20:04:13.347Z,2.15
2022-08-28T20:06:42.683Z,2.92
2022-08-28T20:09:13.032Z,1.90
2022-08-28T20:11:44.212Z,2.30
2022-08-28T20:14:12.173Z,2.20
2022-08-28T20:16:42.412Z,2.40
2022-08-28T20:19:12.532Z,2.58
2022-08-28T20:21:44.213Z,2.60
2022-08-28T20:24:15.188Z,2.40
2022-08-28T20:26:43.122Z,2.28
2022-08-28T20:29:12.234Z,2.40
2022-08-28T20:31:41.548Z,2.28
2022-08-28T20:34:10.131Z,1.80
2022-08-28T20:36:38.479Z,2.08
2022-08-28T20:39:09.362Z,2.58
2022-08-28T20:41:39.066Z,2.15
2022-08-28T20:44:07.814Z,2.38
2022-08-28T20:46:41.326Z,2.30
2022-08-28T20:49:10.849Z,2.55
2022-08-28T20:51:54.463Z,2.22
2022-08-28T20:57:00.129Z,1.80
2022-08-28T20:59:28.922Z,2.13
2022-08-28T21:02:10.529Z,2.10
2022-08-28T21:04:40.039Z,2.50
2022-08-28T21:07:08.132Z,2.67
2022-08-28T21:10:05.001Z,2.50
2022-08-28T21:12:25.974Z,2.60
2022-08-28T21:14:54.058Z,2.30
2022-08-28T21:17:28.896Z,2.13
2022-08-28T21:20:00.292Z,2.85
2022-08-28T21:22:29.741Z,2.65
2022-08-28T21:24:59.049Z,2.67
2022-08-28T21:27:27.011Z,2.45
2022-08-28T21:29:57.550Z,2.83
2022-08-28T21:32:27.057Z,2.50
2022-08-28T21:34:55.386Z,2.45
2022-08-28T21:37:24.201Z,2.65
2022-08-28T21:39:52.135Z,2.40
2022-08-28T21:42:26.572Z,2.30
2022-08-28T21:44:55.500Z,2.55
2022-08-28T21:47:24.296Z,2.83
2022-08-28T21:49:53.643Z,2.45
2022-08-28T21:52:26.068Z,2.58
2022-08-28T21:54:59.098Z,2.07
2022-08-28T21:57:32.214Z,2.42
2022-08-28T22:00:00.540Z,2.25
2022-08-28T22:02:29.759Z,2.53
2022-08-28T22:04:57.722Z,2.53
2022-08-28T22:07:25.763Z,2.60
2022-08-28T22:09:56.771Z,2.45
2022-08-28T22:12:24.717Z,2.42
2022-08-28T22:14:54.162Z,2.50
2022-08-28T22:17:24.235Z,2.35
2022-08-28T22:19:52.277Z,2.65
2022-08-28T22:22:40.638Z,2.63
2022-08-28T22:25:09.107Z,2.47
2022-08-28T22:27:37.047Z,3.20
2022-08-28T22:30:10.209Z,2.88
2022-08-28T22:32:38.253Z,2.88
2022-08-28T22:35:07.256Z,2.95
2022-08-28T22:37:36.041Z,2.80
2022-08-28T22:40:12.886Z,2.53
2022-08-28T22:42:41.796Z,2.38
2022-08-28T22:45:11.628Z,2.72
2022-08-28T22:47:40.138Z,2.20
2022-08-28T22:50:09.228Z,2.95
2022-08-28T22:52:37.207Z,2.78
2022-08-28T22:55:08.528Z,2.40
2022-08-28T22:57:36.910Z,2.63
2022-08-28T23:00:06.632Z,2.22
2022-08-28T23:02:36.194Z,2.72
2022-08-28T23:05:04.685Z,2.60
2022-08-28T23:07:32.637Z,2.83
2022-08-28T23:10:00.637Z,2.75
2022-08-28T23:12:28.709Z,2.97
2022-08-28T23:14:56.652Z,2.33
2022-08-28T23:17:24.781Z,2.75
2022-08-28T23:19:54.143Z,2.97
2022-08-28T23:22:22.311Z,3.05
2022-08-28T23:24:50.183Z,2.33
2022-08-28T23:27:35.729Z,2.53
2022-08-28T23:30:07.012Z,2.33
2022-08-28T23:32:35.257Z,2.40
2022-08-28T23:35:07.316Z,2.33
2022-08-28T23:37:36.395Z,2.50
2022-08-28T23:40:06.102Z,2.95
2022-08-28T23:42:34.225Z,2.83
2022-08-28T23:45:02.156Z,3.00
2022-08-28T23:47:33.243Z,2.80
2022-08-28T23:50:01.308Z,2.63
2022-08-28T23:52:30.642Z,2.78
2022-08-28T23:55:00.937Z,2.60
2022-08-28T23:57:29.025Z,2.75
2022-08-28T23:59:57.057Z,2.53
